Hlavní strana
METAR-TAF:

METAR-TAF

Letiště :

Karlstad, Švédsko

zeměpisná šířka: 59-26-41N, zeměpisná délka: 013-20-15E, výška: 107 m

Aktuální stav počasí

Zpráva byla vytvořena před 18 minutami, v 09:50 UTC
Severní vítr 14 kt
Teplota 1°C
Vlhkost vzduchu 55%
Tlak 1019 hPa
Viditelnost 10 km a více
Žádná oblačnost pod 1500 m, nevyskytují se cumulonimby.

METAR: ESOK 040950Z 35014KT CAVOK 01/M07 Q1019

Čas: 11:08 (10:08 UTC)

Předpověď počasí

Zpráva byla vytvořena před 1 hodinou a 38 minutami, v 08:30 UTC
Předpověď platná od 04 v 09 UTC do 04 v 16 UTC
Severoseverozápadní vítr 10 kt
Viditelnost 10 km a více
Žádná oblačnost pod 1500 m, nevyskytují se cumulonimby.

TAF: ESOK 040830Z 0409/0416 33010KT CAVOK

Stav a předpovědi počasí z více než 4 000 letišť (zprávy METAR a TAF).

Červené a žluté tečky na mapě představují dostupné meteorologické stanice.

Když kurzor umístíte na tečku, zobrazí se název stanice.

Pak kliknutím zobrazíte stav a předpověď počasí.

Chcete-li změnit mapu, kliknutím na zelené tlačítko se znaménkem +mapu přiblížíte, kliknutím na zelené tlačítko se znaménkem – mapu oddálíte a kliknutím na zelené šipky přejdete na sousední mapy.


METAR-TAF: